Time;durP1;ratioP1;P1;durP2;ratioP2;P2;SDS_P1;SDS_P2;PMS_P1;PMS_P2;Temp;Humidity;BMP_temperature;BMP_pressure;BME280_temperature;BME280_humidity;BME280_pressure;Samples;Min_cycle;Max_cycle;Signal;HPM_P1;HPM_P2
2021/05/29 00:01:16;;;;;;;13.97;5.80;;;;;;;8.93;85.50;101724.63;128443;1102;61971;-75
2021/05/29 00:03:43;;;;;;;5.90;3.57;;;;;;;8.88;86.08;101729.52;128398;1104;63022;-75
2021/05/29 00:06:11;;;;;;;12.00;5.77;;;;;;;8.86;85.99;101742.05;128580;1101;62052;-76
2021/05/29 00:08:38;;;;;;;10.17;5.73;;;;;;;8.82;86.93;101738.00;128665;1101;62042;-76
2021/05/29 00:11:06;;;;;;;7.70;5.10;;;;;;;8.81;86.56;101731.02;128713;1101;62007;-76
2021/05/29 00:13:33;;;;;;;12.57;6.00;;;;;;;8.81;86.70;101723.09;128437;1102;61989;-76
2021/05/29 00:16:01;;;;;;;9.53;5.47;;;;;;;8.84;86.98;101724.61;128393;1104;62516;-75
2021/05/29 00:18:28;;;;;;;10.70;6.13;;;;;;;8.86;86.96;101726.17;128390;1104;62010;-76
2021/05/29 00:20:55;;;;;;;11.57;7.43;;;;;;;8.89;86.98;101725.88;128396;1104;62155;-76
2021/05/29 00:23:24;;;;;;;10.17;5.60;;;;;;;8.93;87.29;101723.80;128650;1101;62308;-76
2021/05/29 00:25:52;;;;;;;9.40;5.70;;;;;;;8.93;86.95;101719.34;128416;1102;62342;-75
2021/05/29 00:28:19;;;;;;;12.83;6.43;;;;;;;8.93;86.08;101719.34;128450;1101;62298;-75
2021/05/29 00:30:46;;;;;;;14.83;5.50;;;;;;;8.89;87.29;101715.30;128517;1101;62081;-76
2021/05/29 00:33:16;;;;;;;11.57;6.33;;;;;;;8.87;86.31;101713.77;128403;1101;62138;-76
2021/05/29 00:35:43;;;;;;;10.90;5.53;;;;;;;8.81;86.80;101719.61;128559;1101;62112;-76
2021/05/29 00:38:10;;;;;;;16.30;5.50;;;;;;;8.76;86.80;101720.03;128605;1101;62134;-76
2021/05/29 00:40:37;;;;;;;6.37;3.47;;;;;;;8.75;87.25;101720.98;128404;1104;62843;-76
2021/05/29 00:43:05;;;;;;;9.70;6.23;;;;;;;8.75;86.90;101727.11;128399;1102;62091;-76
2021/05/29 00:45:33;;;;;;;14.70;6.50;;;;;;;8.74;86.83;101720.16;128470;1101;62263;-76
2021/05/29 00:48:02;;;;;;;9.63;5.10;;;;;;;8.77;86.83;101726.98;128552;1101;62036;-76
2021/05/29 00:50:31;;;;;;;9.83;5.23;;;;;;;8.80;86.81;101717.92;128685;1101;62062;-76
2021/05/29 00:52:59;;;;;;;16.37;6.20;;;;;;;8.81;87.08;101720.44;128573;1101;62733;-76
2021/05/29 00:55:26;;;;;;;13.43;6.83;;;;;;;8.86;86.47;101720.02;128658;1101;62499;-76
2021/05/29 00:57:53;;;;;;;11.53;6.50;;;;;;;8.92;86.62;101732.70;128403;1104;62238;-76
2021/05/29 01:00:22;;;;;;;12.43;7.03;;;;;;;8.96;87.42;101724.34;128624;1101;61971;-76
2021/05/29 01:02:51;;;;;;;11.00;6.27;;;;;;;9.00;86.55;101732.02;128708;1101;62010;-76
2021/05/29 01:05:19;;;;;;;12.33;6.53;;;;;;;9.03;86.39;101735.23;128601;1101;62852;-76
2021/05/29 01:07:49;;;;;;;12.47;6.70;;;;;;;9.04;86.44;101730.77;128581;1101;62209;-76
2021/05/29 01:10:17;;;;;;;9.87;5.20;;;;;;;9.03;87.34;101734.38;128613;1101;62190;-76
2021/05/29 01:12:45;;;;;;;13.97;7.57;;;;;;;8.96;87.22;101726.16;128365;1104;61965;-76
2021/05/29 01:15:14;;;;;;;16.37;6.90;;;;;;;9.04;87.53;101742.19;128435;1102;62097;-76
2021/05/29 01:17:41;;;;;;;11.30;6.43;;;;;;;9.05;87.65;101737.72;128660;1101;62893;-76
2021/05/29 01:20:09;;;;;;;11.20;6.00;;;;;;;9.05;87.54;101741.20;128398;1104;62192;-77
2021/05/29 01:22:46;;;;;;;17.10;8.20;;;;;;;9.07;87.53;101741.06;128659;1101;61990;-77
2021/05/29 01:25:23;;;;;;;6.93;4.73;;;;;;;9.06;87.85;101739.41;128683;1101;62365;-76
2021/05/29 01:28:13;;;;;;;12.83;6.27;;;;;;;9.06;88.03;101742.05;128686;1101;62020;-76
2021/05/29 01:30:46;;;;;;;16.80;9.37;;;;;;;9.06;87.56;101736.77;128379;1104;62559;-76
2021/05/29 01:33:22;;;;;;;13.77;7.83;;;;;;;9.10;87.11;101735.51;128627;1101;62122;-76
2021/05/29 01:35:50;;;;;;;10.63;5.37;;;;;;;9.14;87.61;101736.91;128635;1101;61961;-76
2021/05/29 01:38:25;;;;;;;14.50;7.10;;;;;;;9.17;86.77;101731.31;128438;1102;62165;-75
2021/05/29 01:40:52;;;;;;;14.75;7.93;;;;;;;9.18;87.07;101733.00;128646;1101;61988;-76
2021/05/29 01:43:19;;;;;;;11.23;5.93;;;;;;;9.17;87.56;101732.14;128642;1101;62848;-75
2021/05/29 01:45:46;;;;;;;9.63;6.03;;;;;;;9.18;86.55;101717.12;128616;1101;61993;-75
2021/05/29 01:48:17;;;;;;;13.33;6.33;;;;;;;9.19;86.24;101732.02;128435;1102;62122;-75
2021/05/29 01:50:48;;;;;;;14.67;6.53;;;;;;;9.21;86.14;101726.59;128612;1101;62158;-75
2021/05/29 01:53:20;;;;;;;11.20;5.90;;;;;;;9.23;86.00;101729.92;128624;1101;61965;-76
2021/05/29 01:55:47;;;;;;;13.83;7.37;;;;;;;9.25;86.00;101734.09;128622;1101;62866;-76
2021/05/29 01:58:15;;;;;;;12.10;5.13;;;;;;;9.24;86.25;101737.70;128395;1104;62300;-76
2021/05/29 02:00:43;;;;;;;11.33;5.00;;;;;;;9.23;85.92;101733.41;128393;1104;61926;-75
2021/05/29 02:03:10;;;;;;;10.33;5.70;;;;;;;9.24;85.83;101731.58;128663;1101;62007;-75
2021/05/29 02:05:39;;;;;;;13.10;7.23;;;;;;;9.25;85.33;101728.80;128665;1101;61978;-75
2021/05/29 02:08:08;;;;;;;8.90;4.97;;;;;;;9.25;85.18;101720.86;128427;1102;62811;-75
2021/05/29 02:10:37;;;;;;;10.50;4.53;;;;;;;9.24;85.17;101720.99;128694;1101;61923;-75
2021/05/29 02:13:09;;;;;;;5.33;2.70;;;;;;;9.22;85.13;101723.77;128568;1101;62710;-75
2021/05/29 02:15:39;;;;;;;10.10;5.30;;;;;;;9.22;85.25;101731.72;128610;1101;61972;-75
2021/05/29 02:18:10;;;;;;;8.50;4.07;;;;;;;9.20;85.19;101733.67;128615;1101;61954;-76
2021/05/29 02:20:41;;;;;;;9.27;4.40;;;;;;;9.19;85.32;101732.02;128399;1104;62847;-76
2021/05/29 02:23:10;;;;;;;9.90;5.33;;;;;;;9.17;84.74;101741.91;128685;1101;62121;-76
2021/05/29 02:25:37;;;;;;;9.73;5.37;;;;;;;9.17;84.44;101736.61;128393;1103;62090;-76
2021/05/29 02:28:05;;;;;;;9.43;4.00;;;;;;;9.19;84.64;101740.78;128651;1101;62101;-76
2021/05/29 02:30:33;;;;;;;9.30;6.50;;;;;;;9.19;84.63;101745.25;128611;1101;62019;-76
2021/05/29 02:33:00;;;;;;;10.43;5.07;;;;;;;9.17;84.06;101742.73;128659;1101;62233;-76
2021/05/29 02:35:27;;;;;;;7.70;4.33;;;;;;;9.17;83.98;101741.91;128383;1104;62046;-76
2021/05/29 02:37:54;;;;;;;10.77;5.03;;;;;;;9.19;82.81;101750.55;128400;1104;62025;-76
2021/05/29 02:40:22;;;;;;;12.83;4.83;;;;;;;9.18;83.32;101749.72;128687;1101;62255;-76
2021/05/29 02:42:50;;;;;;;8.87;4.67;;;;;;;9.19;82.88;101753.19;128401;1104;62004;-76
2021/05/29 02:45:17;;;;;;;9.73;4.17;;;;;;;9.19;82.24;101745.25;128404;1105;62809;-76
2021/05/29 02:47:44;;;;;;;9.83;4.70;;;;;;;9.19;81.89;101737.30;128377;1104;62176;-76
2021/05/29 02:50:13;;;;;;;7.67;4.40;;;;;;;9.16;82.01;101741.08;128708;1101;62457;-76
2021/05/29 02:52:41;;;;;;;7.23;4.60;;;;;;;9.11;81.25;101739.81;128377;1104;62250;-76
2021/05/29 02:55:12;;;;;;;10.43;4.83;;;;;;;9.09;80.98;101745.23;128669;1101;62035;-77
2021/05/29 02:57:39;;;;;;;13.83;4.77;;;;;;;9.11;82.06;101751.23;128621;1101;61991;-77
2021/05/29 03:00:09;;;;;;;9.00;4.77;;;;;;;9.12;81.63;101754.73;128416;1104;62027;-76
2021/05/29 03:02:36;;;;;;;7.57;4.20;;;;;;;9.12;80.98;101754.73;128584;1101;61993;-76
2021/05/29 03:05:06;;;;;;;7.03;4.20;;;;;;;9.10;80.69;101757.52;128587;1101;61996;-76
2021/05/29 03:07:33;;;;;;;8.07;4.33;;;;;;;9.07;81.64;101763.06;128643;1101;61999;-76
2021/05/29 03:10:01;;;;;;;7.60;4.20;;;;;;;9.05;81.69;101765.02;128578;1101;62050;-76
2021/05/29 03:12:29;;;;;;;10.13;4.30;;;;;;;9.02;81.15;101772.42;128565;1101;62145;-76
2021/05/29 03:14:56;;;;;;;9.53;4.80;;;;;;;9.02;81.37;101780.36;128581;1101;61961;-76
2021/05/29 03:17:24;;;;;;;9.40;4.55;;;;;;;9.02;80.53;101769.77;128360;1104;62197;-76
2021/05/29 03:19:51;;;;;;;11.37;4.60;;;;;;;9.03;81.64;101760.84;128410;1104;62064;-77
2021/05/29 03:22:19;;;;;;;9.80;5.40;;;;;;;9.04;81.15;101770.47;128408;1104;62805;-77
2021/05/29 03:24:46;;;;;;;9.00;5.00;;;;;;;9.04;81.02;101762.53;128566;1101;62117;-77
2021/05/29 03:27:17;;;;;;;9.60;4.50;;;;;;;9.08;82.02;101763.93;128596;1101;62269;-77
2021/05/29 03:29:46;;;;;;;11.17;5.03;;;;;;;9.11;81.44;101764.47;128384;1102;62024;-78
2021/05/29 03:32:13;;;;;;;7.47;3.77;;;;;;;9.12;81.19;101762.67;128482;1102;62112;-78
2021/05/29 03:34:42;;;;;;;7.43;4.13;;;;;;;9.10;80.32;101767.27;128664;1101;62148;-78
2021/05/29 03:37:09;;;;;;;8.63;4.47;;;;;;;9.07;80.63;101770.17;128471;1101;61892;-78
2021/05/29 03:39:37;;;;;;;8.43;4.77;;;;;;;9.06;80.62;101765.88;128715;1101;61957;-78
2021/05/29 03:42:05;;;;;;;8.80;5.67;;;;;;;9.06;80.27;101766.70;128575;1101;62052;-78
2021/05/29 03:44:32;;;;;;;8.43;4.20;;;;;;;9.07;80.97;101763.06;128384;1104;61969;-78
2021/05/29 03:46:59;;;;;;;6.00;2.87;;;;;;;9.10;80.66;101772.56;128659;1101;62936;-78
2021/05/29 03:49:27;;;;;;;6.87;4.77;;;;;;;9.10;80.76;101772.56;128399;1101;62509;-78
2021/05/29 03:51:54;;;;;;;8.13;3.70;;;;;;;9.12;80.73;101782.03;128588;1101;62054;-78
2021/05/29 03:54:21;;;;;;;8.20;4.07;;;;;;;9.14;80.76;101780.09;128364;1105;61370;-77
2021/05/29 03:56:48;;;;;;;6.63;3.57;;;;;;;9.16;80.70;101782.60;128417;1104;62347;-78
2021/05/29 03:59:16;;;;;;;8.40;4.53;;;;;;;9.19;80.88;101782.31;128670;1101;61995;-78
2021/05/29 04:01:43;;;;;;;8.77;4.07;;;;;;;9.22;80.76;101782.02;128389;1104;61915;-78
2021/05/29 04:04:11;;;;;;;10.60;4.70;;;;;;;9.21;80.45;101788.30;128363;1104;62043;-78
2021/05/29 04:06:38;;;;;;;7.10;3.47;;;;;;;9.22;79.98;101789.96;128710;1101;61910;-78
2021/05/29 04:09:07;;;;;;;5.87;3.33;;;;;;;9.22;80.04;101789.96;128674;1101;61546;-78
2021/05/29 04:11:35;;;;;;;7.53;4.00;;;;;;;9.22;79.93;101789.96;128733;1101;62059;-78
2021/05/29 04:14:04;;;;;;;9.83;4.27;;;;;;;9.21;79.82;101790.13;128406;1104;62185;-78
2021/05/29 04:16:32;;;;;;;7.63;4.23;;;;;;;9.18;80.10;101796.54;128685;1101;62018;-78
2021/05/29 04:18:59;;;;;;;8.10;3.17;;;;;;;9.17;79.26;101797.50;128680;1101;61930;-78
2021/05/29 04:21:26;;;;;;;9.00;3.73;;;;;;;9.18;79.59;101796.54;128437;1104;62304;-78
2021/05/29 04:23:55;;;;;;;7.33;3.20;;;;;;;9.18;79.49;101794.72;128411;1101;62840;-78
2021/05/29 04:26:22;;;;;;;7.70;4.10;;;;;;;9.19;79.45;101790.25;128594;1101;62415;-78
2021/05/29 04:28:50;;;;;;;6.63;3.73;;;;;;;9.19;79.39;101788.44;128706;1101;62000;-77
2021/05/29 04:31:18;;;;;;;8.43;3.50;;;;;;;9.18;79.10;101789.42;128471;1102;62075;-77
2021/05/29 04:33:45;;;;;;;10.90;3.87;;;;;;;9.19;79.16;101788.44;128438;1101;61957;-78
2021/05/29 04:36:13;;;;;;;7.87;3.70;;;;;;;9.22;79.63;101786.48;128415;1104;63361;-78
2021/05/29 04:38:40;;;;;;;6.87;3.90;;;;;;;9.22;78.74;101787.31;128650;1101;61910;-77
2021/05/29 04:41:07;;;;;;;10.63;4.07;;;;;;;9.26;79.54;101793.17;128709;1101;61996;-77
2021/05/29 04:43:34;;;;;;;7.20;3.60;;;;;;;9.29;79.42;101793.75;128412;1104;62140;-78
2021/05/29 04:46:01;;;;;;;6.07;3.20;;;;;;;9.32;78.92;101790.80;128724;1101;62208;-77
2021/05/29 04:48:28;;;;;;;7.07;3.53;;;;;;;9.36;79.65;101789.55;128411;1104;61971;-77
2021/05/29 04:53:46;;;;;;;6.43;2.57;;;;;;;9.45;78.88;101787.04;128652;1101;62132;-78
2021/05/29 04:56:15;;;;;;;5.57;3.07;;;;;;;9.44;78.46;101788.03;128437;1101;61922;-78
2021/05/29 04:58:42;;;;;;;8.93;3.40;;;;;;;9.42;77.85;101792.63;128714;1101;62020;-78
2021/05/29 05:01:12;;;;;;;6.93;3.60;;;;;;;9.44;77.80;101802.10;128708;1101;62473;-78
2021/05/29 05:03:40;;;;;;;6.17;3.47;;;;;;;9.45;78.55;101802.94;128415;1104;62342;-78
2021/05/29 05:06:08;;;;;;;6.27;3.50;;;;;;;9.45;77.77;101802.94;128377;1104;62133;-78
2021/05/29 05:08:35;;;;;;;6.50;3.27;;;;;;;9.46;77.93;101800.16;128649;1101;61955;-77
2021/05/29 05:11:02;;;;;;;12.70;4.90;;;;;;;9.53;78.29;101805.72;128724;1101;62033;-78
2021/05/29 05:13:30;;;;;;;6.67;3.17;;;;;;;9.60;78.42;101804.17;128690;1101;62946;-78
2021/05/29 05:15:57;;;;;;;7.23;3.60;;;;;;;9.65;78.20;101801.09;128700;1101;63264;-78
2021/05/29 05:18:24;;;;;;;12.07;3.53;;;;;;;9.70;77.52;101812.12;128687;1101;62087;-78
2021/05/29 05:20:52;;;;;;;9.77;3.83;;;;;;;9.72;77.00;101804.86;128690;1101;62047;-78
2021/05/29 05:23:21;;;;;;;6.93;4.10;;;;;;;9.76;77.59;101806.25;128628;1101;62034;-78
2021/05/29 05:25:51;;;;;;;6.60;3.67;;;;;;;9.79;77.33;101814.73;128594;1101;62920;-78
2021/05/29 05:28:27;;;;;;;9.97;3.90;;;;;;;9.80;76.85;101813.77;128391;1104;62047;-77
2021/05/29 05:30:56;;;;;;;7.70;2.80;;;;;;;9.79;76.68;101817.38;128393;1104;62724;-77
2021/05/29 05:33:24;;;;;;;9.27;4.23;;;;;;;9.77;76.45;101819.34;128474;1102;62104;-77
2021/05/29 05:35:53;;;;;;;7.63;4.17;;;;;;;9.75;75.84;101826.63;128404;1101;61738;-77
2021/05/29 05:38:21;;;;;;;8.20;3.57;;;;;;;9.77;76.22;101829.94;128714;1101;62352;-81
2021/05/29 05:40:48;;;;;;;7.10;3.90;;;;;;;9.80;76.74;101829.67;128379;1104;61949;-81
2021/05/29 05:43:15;;;;;;;10.30;3.70;;;;;;;9.87;76.57;101831.75;128474;1102;62017;-83
2021/05/29 05:45:42;;;;;;;12.17;4.97;;;;;;;9.90;76.75;101839.41;128686;1101;62074;-81
2021/05/29 05:48:10;;;;;;;9.50;3.73;;;;;;;9.92;76.92;101837.45;128663;1101;62177;-84
2021/05/29 05:50:51;;;;;;;7.20;3.43;;;;;;;9.92;75.96;101834.80;128674;1101;62025;-83
2021/05/29 05:53:20;;;;;;;7.00;4.00;;;;;;;9.94;76.77;101835.50;128716;1101;61972;-80
2021/05/29 05:55:56;;;;;;;8.27;3.47;;;;;;;9.98;76.62;101839.53;128392;1104;62176;-78
2021/05/29 05:58:23;;;;;;;7.70;4.27;;;;;;;10.01;75.91;101833.97;128680;1101;61927;-79
2021/05/29 06:00:50;;;;;;;8.20;3.80;;;;;;;10.06;76.29;101844.97;128627;1101;62007;-79
2021/05/29 06:03:19;;;;;;;8.10;3.73;;;;;;;10.09;75.56;101849.97;128425;1103;62021;-79
2021/05/29 06:05:47;;;;;;;6.70;4.00;;;;;;;10.09;75.62;101844.66;128691;1101;62117;-77
2021/05/29 06:08:16;;;;;;;7.23;3.53;;;;;;;10.08;75.47;101842.18;128663;1101;61969;-79
2021/05/29 06:10:43;;;;;;;8.57;3.77;;;;;;;10.07;75.81;101845.80;128418;1102;62166;-77
2021/05/29 06:22:01;;;;;;;7.63;3.70;;;;;;;10.18;75.14;101851.78;128591;1101;62104;-79
2021/05/29 06:24:43;;;;;;;9.37;4.20;;;;;;;10.21;74.95;101840.87;128354;1101;62221;-78
2021/05/29 06:27:19;;;;;;;6.93;4.53;;;;;;;10.22;75.06;101849.65;128385;1101;62318;-78
2021/05/29 06:29:46;;;;;;;8.70;4.37;;;;;;;10.21;75.37;101854.13;128588;1101;62887;-78
2021/05/29 06:32:13;;;;;;;9.37;3.63;;;;;;;10.16;74.90;101861.69;128488;1101;61973;-78
2021/05/29 06:34:40;;;;;;;10.53;4.53;;;;;;;10.12;74.74;101855.00;128579;1101;62437;-78
2021/05/29 06:37:08;;;;;;;12.20;5.17;;;;;;;10.14;75.39;101857.52;128529;1101;62147;-79
2021/05/29 06:39:35;;;;;;;9.53;4.27;;;;;;;10.19;75.82;101861.39;128559;1101;61992;-79
2021/05/29 06:42:02;;;;;;;7.53;3.93;;;;;;;10.25;75.31;101867.11;128511;1101;62833;-78
2021/05/29 06:44:29;;;;;;;9.87;5.23;;;;;;;10.30;75.78;101875.50;128333;1104;62066;-78
2021/05/29 06:46:56;;;;;;;11.20;4.77;;;;;;;10.37;75.67;101868.63;128338;1104;62291;-78
2021/05/29 06:49:23;;;;;;;10.90;4.20;;;;;;;10.38;74.93;101872.96;128541;1101;61993;-79
2021/05/29 06:52:09;;;;;;;9.00;3.30;;;;;;;10.42;74.79;101871.70;128385;1104;62012;-79
2021/05/29 07:00:10;;;;;;;7.93;3.97;;;;;;;10.47;74.46;101869.43;128404;1102;62481;-79
2021/05/29 07:02:38;;;;;;;9.00;4.40;;;;;;;10.51;74.82;101870.81;128314;1104;62211;-78
2021/05/29 07:05:09;;;;;;;4.60;2.57;;;;;;;10.53;74.26;101879.47;128356;1101;62148;-78
2021/05/29 07:07:38;;;;;;;7.67;4.43;;;;;;;10.54;73.86;101875.84;128608;1101;62176;-78
2021/05/29 07:10:06;;;;;;;11.30;4.43;;;;;;;10.62;74.66;101872.44;128558;1101;62331;-79
2021/05/29 07:12:36;;;;;;;7.23;3.93;;;;;;;10.69;73.68;101883.30;128337;1102;62838;-78
2021/05/29 07:15:06;;;;;;;9.83;4.37;;;;;;;10.73;73.20;101879.38;128362;1104;62821;-78
2021/05/29 07:17:38;;;;;;;9.67;3.80;;;;;;;10.77;73.30;101878.10;128588;1101;61994;-78
2021/05/29 07:20:05;;;;;;;5.93;3.30;;;;;;;10.82;73.33;101889.13;128569;1101;62268;-78
2021/05/29 07:22:34;;;;;;;7.73;3.60;;;;;;;10.83;72.74;101874.86;128591;1101;62087;-78
2021/05/29 07:25:01;;;;;;;11.50;4.53;;;;;;;10.88;73.12;101879.72;128396;1102;62077;-79
2021/05/29 07:27:28;;;;;;;8.17;4.20;;;;;;;10.91;72.72;101882.92;128356;1104;62057;-78
2021/05/29 07:29:56;;;;;;;9.07;4.57;;;;;;;10.96;72.98;101880.66;128353;1104;61808;-80
2021/05/29 07:32:24;;;;;;;7.93;4.83;;;;;;;10.92;72.65;101879.30;128469;1101;62186;-80
2021/05/29 07:34:52;;;;;;;7.27;4.03;;;;;;;10.87;72.48;101889.52;128677;1101;62018;-81
2021/05/29 07:37:22;;;;;;;6.87;3.67;;;;;;;10.87;72.79;101889.52;128359;1104;61961;-82
2021/05/29 07:39:49;;;;;;;6.77;3.87;;;;;;;10.89;73.03;101889.38;128665;1101;61935;-82
2021/05/29 07:42:16;;;;;;;8.47;3.53;;;;;;;10.92;72.92;101889.92;128482;1102;62004;-82
2021/05/29 07:44:44;;;;;;;8.17;3.90;;;;;;;10.99;72.95;101895.48;128742;1101;62211;-81
2021/05/29 07:47:11;;;;;;;7.00;3.97;;;;;;;11.04;73.38;101897.68;128658;1101;62088;-81
2021/05/29 07:49:38;;;;;;;8.37;4.03;;;;;;;11.04;72.04;101902.99;128443;1104;62129;-79
2021/05/29 07:52:11;;;;;;;6.13;4.03;;;;;;;11.05;72.46;101894.02;128612;1101;62268;-78
2021/05/29 07:54:38;;;;;;;5.40;3.33;;;;;;;11.07;72.77;101897.38;128395;1104;61926;-78
2021/05/29 07:57:09;;;;;;;6.83;3.77;;;;;;;11.12;72.59;101906.58;128470;1102;62018;-78
2021/05/29 07:59:38;;;;;;;6.97;4.20;;;;;;;11.16;72.25;101905.30;128726;1101;62004;-79
2021/05/29 08:02:05;;;;;;;10.37;5.40;;;;;;;11.19;72.00;101910.30;128493;1101;61962;-79
2021/05/29 08:04:33;;;;;;;6.73;3.53;;;;;;;11.18;71.80;101910.47;128717;1101;62361;-79
2021/05/29 08:07:00;;;;;;;10.50;4.80;;;;;;;11.21;72.06;101910.16;128681;1101;61919;-79
2021/05/29 08:09:30;;;;;;;8.23;5.00;;;;;;;11.24;71.69;101917.80;128419;1104;62125;-81
2021/05/29 08:11:57;;;;;;;8.10;4.27;;;;;;;11.24;71.26;101915.16;128585;1101;62061;-79
2021/05/29 08:14:24;;;;;;;6.53;3.97;;;;;;;11.26;71.26;101913.19;128698;1101;62029;-82
2021/05/29 08:16:51;;;;;;;12.10;4.97;;;;;;;11.20;71.15;101919.13;128444;1102;63089;-82
2021/05/29 08:19:18;;;;;;;10.07;4.30;;;;;;;11.20;71.23;101916.47;128658;1101;62206;-82
2021/05/29 08:21:49;;;;;;;7.77;3.73;;;;;;;11.22;71.60;101923.30;128702;1101;62135;-82
2021/05/29 08:24:16;;;;;;;6.00;4.03;;;;;;;11.27;71.45;101932.64;128357;1104;62076;-82
2021/05/29 08:26:44;;;;;;;6.63;3.90;;;;;;;11.35;71.65;101938.05;128454;1104;62189;-82
2021/05/29 08:29:14;;;;;;;8.27;4.50;;;;;;;11.40;71.03;101931.28;128618;1101;61974;-82
2021/05/29 08:31:43;;;;;;;10.23;4.70;;;;;;;11.43;71.03;101935.45;128735;1101;61997;-82
2021/05/29 08:34:11;;;;;;;6.80;3.63;;;;;;;11.47;70.90;101928.02;128451;1104;63040;-82
2021/05/29 08:36:40;;;;;;;6.17;3.03;;;;;;;11.53;70.34;101933.56;128436;1102;62186;-82
2021/05/29 08:39:09;;;;;;;9.93;4.37;;;;;;;11.60;70.49;101936.45;128440;1104;62305;-82
2021/05/29 08:41:38;;;;;;;7.30;4.40;;;;;;;11.67;70.32;101940.19;128696;1101;62735;-83
2021/05/29 08:44:09;;;;;;;10.87;4.40;;;;;;;11.73;70.25;101931.62;128405;1104;62156;-83
2021/05/29 08:46:37;;;;;;;10.17;4.00;;;;;;;11.77;69.58;101932.98;128587;1101;61992;-83
2021/05/29 08:49:06;;;;;;;7.10;3.77;;;;;;;11.80;69.99;101935.33;128634;1101;61966;-83
2021/05/29 08:51:33;;;;;;;9.53;4.47;;;;;;;11.87;69.69;101940.03;128448;1101;62013;-83
2021/05/29 08:54:01;;;;;;;13.00;5.23;;;;;;;11.87;69.75;101942.69;128361;1105;62092;-83
2021/05/29 08:56:29;;;;;;;11.27;5.67;;;;;;;11.91;69.63;101939.61;128662;1101;61953;-83
2021/05/29 08:58:56;;;;;;;9.40;4.50;;;;;;;11.94;68.50;101946.44;128644;1101;62000;-83
2021/05/29 09:01:24;;;;;;;9.30;4.87;;;;;;;11.85;68.42;101937.52;128701;1101;62274;-82
2021/05/29 09:04:01;;;;;;;6.53;3.97;;;;;;;11.76;68.47;101947.25;128641;1101;62035;-82
2021/05/29 09:06:30;;;;;;;9.03;5.20;;;;;;;11.74;69.25;101941.25;128721;1101;61939;-83
2021/05/29 09:09:00;;;;;;;7.30;4.60;;;;;;;11.77;69.50;101948.08;128659;1101;63112;-79
2021/05/29 09:11:49;;;;;;;10.27;5.40;;;;;;;11.81;69.45;101949.45;128663;1101;62403;-83
2021/05/29 09:14:29;;;;;;;11.03;5.57;;;;;;;11.78;69.63;101952.42;128380;1104;62073;-84
2021/05/29 09:17:24;;;;;;;9.83;4.53;;;;;;;11.70;69.23;101958.48;128637;1101;62046;-84
2021/05/29 09:20:09;;;;;;;9.30;3.73;;;;;;;11.54;69.12;101955.66;128652;1101;61931;-82
2021/05/29 09:22:40;;;;;;;8.53;4.03;;;;;;;11.49;70.04;101957.94;128683;1101;61969;-79
2021/05/29 09:25:22;;;;;;;10.50;4.47;;;;;;;11.53;69.83;101959.31;128534;1101;62003;-78
2021/05/29 09:27:54;;;;;;;9.53;5.20;;;;;;;11.59;70.08;101953.41;128452;1102;61947;-79
2021/05/29 09:30:51;;;;;;;10.87;5.13;;;;;;;11.68;69.41;101955.14;128438;1101;61972;-80
2021/05/29 09:33:22;;;;;;;9.17;4.33;;;;;;;11.77;69.42;101954.25;128473;1101;62315;-75
2021/05/29 09:35:59;;;;;;;7.33;4.03;;;;;;;11.86;69.10;101956.96;128395;1105;62079;-76
2021/05/29 09:38:47;;;;;;;7.83;4.30;;;;;;;11.92;68.22;101959.05;128731;1101;62890;-75
2021/05/29 09:41:33;;;;;;;8.23;4.63;;;;;;;11.98;67.62;101966.41;128624;1101;62024;-75
2021/05/29 09:44:05;;;;;;;7.10;3.40;;;;;;;12.00;67.69;101959.13;128383;1104;62804;-74
2021/05/29 09:46:55;;;;;;;7.20;4.40;;;;;;;12.00;67.69;101959.13;128640;1101;61997;-75
2021/05/29 09:49:51;;;;;;;7.40;3.43;;;;;;;12.10;68.04;101969.69;128684;1101;62062;-75
2021/05/29 09:52:22;;;;;;;9.17;4.87;;;;;;;12.17;67.26;101971.56;128365;1101;62014;-76
2021/05/29 09:54:50;;;;;;;7.13;3.90;;;;;;;12.21;67.20;101972.09;128609;1101;62382;-76
2021/05/29 09:57:18;;;;;;;12.60;5.10;;;;;;;12.28;67.63;101975.80;128566;1101;61973;-76
2021/05/29 10:00:04;;;;;;;9.03;5.37;;;;;;;12.34;67.56;101971.69;128385;1101;62083;-77
2021/05/29 10:02:32;;;;;;;8.37;4.43;;;;;;;12.32;66.71;101981.66;128429;1104;61971;-76
2021/05/29 10:04:59;;;;;;;8.03;4.27;;;;;;;12.29;66.72;101984.64;128666;1101;62057;-76
2021/05/29 10:07:40;;;;;;;9.47;5.03;;;;;;;12.21;66.27;101980.08;128633;1101;62483;-77
2021/05/29 10:10:08;;;;;;;8.27;4.53;;;;;;;12.00;66.63;101981.22;128701;1101;62599;-77
2021/05/29 10:12:35;;;;;;;6.70;3.50;;;;;;;11.89;66.99;101989.44;128726;1101;62294;-77
2021/05/29 10:15:03;;;;;;;6.13;3.83;;;;;;;11.73;67.80;101990.09;128389;1104;61975;-76
2021/05/29 10:17:31;;;;;;;5.90;3.03;;;;;;;11.67;67.87;101996.02;128716;1101;62823;-76
2021/05/29 10:19:58;;;;;;;7.63;3.67;;;;;;;11.58;68.70;101996.89;128594;1101;62774;-76
2021/05/29 10:22:26;;;;;;;11.50;4.97;;;;;;;11.54;68.93;101995.52;128695;1101;61991;-76
2021/05/29 10:24:57;;;;;;;10.30;5.30;;;;;;;11.55;69.19;101997.20;128378;1104;62021;-76
2021/05/29 10:27:29;;;;;;;8.67;4.70;;;;;;;11.62;69.10;101993.81;128620;1101;62103;-77
2021/05/29 10:29:59;;;;;;;6.83;3.43;;;;;;;11.73;69.10;101995.42;128656;1101;62004;-76
2021/05/29 10:32:27;;;;;;;6.43;3.20;;;;;;;11.73;68.44;101995.42;128419;1102;62160;-76
2021/05/29 10:35:09;;;;;;;5.27;3.17;;;;;;;11.74;68.12;101999.73;128665;1101;62219;-76
2021/05/29 10:37:44;;;;;;;9.57;4.60;;;;;;;11.76;67.58;101991.61;128440;1101;61355;-76
2021/05/29 10:40:17;;;;;;;;;;;;;;;11.74;67.95;102002.39;128728;1101;62407;-76
2021/05/29 10:42:44;;;;;;;7.43;3.70;;;;;;;11.74;68.59;102002.39;128689;1101;61932;-76
2021/05/29 10:45:30;;;;;;;9.07;4.83;;;;;;;11.80;68.30;101999.13;128623;1101;62050;-77
2021/05/29 10:48:08;;;;;;;7.73;3.73;;;;;;;11.88;68.20;101997.53;128387;1104;62129;-77
2021/05/29 10:50:43;;;;;;;8.87;5.60;;;;;;;11.92;68.16;102005.11;128640;1101;61993;-76
2021/05/29 10:53:49;;;;;;;7.87;4.07;;;;;;;11.88;67.87;102003.73;128379;1101;61994;-76
2021/05/29 10:59:09;;;;;;;6.80;4.47;;;;;;;11.82;68.46;102005.14;128652;1101;63341;-77
2021/05/29 11:01:37;;;;;;;8.23;4.17;;;;;;;11.72;68.48;102004.36;128428;1104;62224;-76
2021/05/29 11:04:23;;;;;;;6.77;4.03;;;;;;;11.70;68.74;102000.19;128364;1105;63379;-76
2021/05/29 11:06:57;;;;;;;8.53;4.80;;;;;;;11.68;69.62;102005.64;128658;1101;62117;-76
2021/05/29 11:09:24;;;;;;;10.05;5.13;;;;;;;11.73;69.54;102006.05;128498;1102;62834;-79
2021/05/29 11:11:56;;;;;;;9.33;4.37;;;;;;;11.77;69.17;102002.11;128689;1101;62077;-79
2021/05/29 11:14:25;;;;;;;9.20;4.80;;;;;;;11.79;69.05;102015.23;128466;1101;62072;-79
2021/05/29 11:16:53;;;;;;;6.87;4.60;;;;;;;11.82;68.72;102005.14;128418;1104;62383;-78
2021/05/29 11:19:32;;;;;;;6.40;3.93;;;;;;;11.88;69.18;102011.72;128715;1101;62096;-78
2021/05/29 11:22:17;;;;;;;7.43;3.20;;;;;;;11.93;68.44;102005.94;128560;1101;62085;-78
2021/05/29 11:24:49;;;;;;;;;;;;;;;11.91;68.14;101997.27;128619;1101;62070;-78
2021/05/29 11:27:33;;;;;;;7.93;3.80;;;;;;;11.93;68.14;102001.45;128736;1101;62005;-78
2021/05/29 11:30:09;;;;;;;6.97;4.03;;;;;;;11.96;67.57;101994.98;128733;1101;61913;-78
2021/05/29 11:32:47;;;;;;;6.97;4.10;;;;;;;12.02;68.20;102000.52;128664;1101;61403;-78
2021/05/29 11:35:41;;;;;;;7.00;4.13;;;;;;;12.07;66.58;102005.41;128385;1105;63229;-78
2021/05/29 11:38:18;;;;;;;7.37;3.70;;;;;;;12.09;66.14;101999.92;128675;1101;62044;-78
2021/05/29 11:41:15;;;;;;;5.13;2.90;;;;;;;12.19;66.37;102000.67;128450;1103;61999;-78
2021/05/29 11:43:53;;;;;;;5.35;3.43;;;;;;;12.42;65.74;101995.70;128634;1101;61987;-78
2021/05/29 11:46:27;;;;;;;7.33;3.50;;;;;;;12.62;64.50;101997.19;128659;1101;62029;-78
2021/05/29 11:49:09;;;;;;;7.77;3.80;;;;;;;12.72;63.63;101990.91;128708;1101;61981;-78
2021/05/29 11:51:39;;;;;;;6.37;3.43;;;;;;;12.66;62.57;101992.37;128588;1101;63471;-78
2021/05/29 11:54:17;;;;;;;7.33;4.07;;;;;;;12.53;63.43;101990.13;128376;1104;62138;-78